Pagrindinis puslapis
METAR-TAF:

METAR-TAF

Oro uostai :

Bankokas, Tailandas

platuma: 13-54-45N, ilguma: 100-36-24E, Aukštis: 4 m

Dabartinis oras

Ataskaita buvo paskelbta 33 minutes, ne 22:00 UTC
Vėjas 3 kt iš Pietų/Pietryčių, svyruoja nuo Pietryčių ir Pietų
Temperatūra 26°C
Drėgmė 94%
Slėgis 1010 hPa
Matomumas: 9000 m
Mažai debesys ne aukštis 3000 ft

METAR: VTBD 262200Z 15003KT 130V190 9000 FEW030 26/25 Q1010 NOSIG

Laikas: 05:33 (22:33 UTC)

Prognozė

Ataskaita buvo paskelbta 5 valandos ir 33 minutes, ne 17:00 UTC
Prognozė galioja nuo 26 metu 18 UTC su 27 metu 24 UTC
Vėjas 5 kt iš Pietų/Pietvakarių
Matomumas: 9000 m
Mažai debesys ne aukštis 2500 ft
Tapsmas
nuo 26 metu 21 UTC su 26 metu 23 UTC
Vėjas 5 kt iš Rytų
Matomumas: 2000 m
rūkana
Tapsmas
nuo 27 metu 02 UTC su 27 metu 04 UTC
Vėjas 5 kt iš Pietų/Pietvakarių
Matomumas: 8000 m

TAF: VTBD 261700Z 2618/2724 20005KT 9000 FEW025 BECMG 2621/2623 10005KT 2000 BR BECMG 2702/2704 20005KT 8000 NSW

Orai ataskaitas ir orų prognozės (METAR, TAF).

turimą stotys yra geltonos ir raudonos taškus žemėlapyje.

Perkelti pele per norėdami pamatyti stoties vardą.

Tada spustelėkite, norėdami matyti oro stebėjimo ir prognozės.

Norėdami pakeisti žemėlapį: spustelėkite ant žalios mygtukų su juodo kryžiaus žemyn,; žalią mygtuką su brūkšneliu, jei norite nutolinti; arba žalių rodyklių gretimoms žemėlapius.


METAR-TAF: